Time;durP1;ratioP1;P1;durP2;ratioP2;P2;SDS_P1;SDS_P2;PMS_P1;PMS_P2;Temp;Humidity;BMP_temperature;BMP_pressure;BME280_temperature;BME280_humidity;BME280_pressure;Samples;Min_cycle;Max_cycle;Signal;HPM_P1;HPM_P2
2021/04/22 00:00:09;;;;;;;18.58;10.60;;;6.80;99.90;;;;;;8329725;28;20540;-65
2021/04/22 00:04:11;;;;;;;18.50;10.77;;;6.90;99.90;;;;;;8328609;28;20056;-65
2021/04/22 00:08:12;;;;;;;17.27;9.98;;;6.70;99.90;;;;;;8328510;28;20050;-66
2021/04/22 00:12:13;;;;;;;20.92;10.98;;;6.80;99.90;;;;;;8329123;28;20467;-65
2021/04/22 00:16:14;;;;;;;19.90;11.00;;;6.80;99.90;;;;;;8329158;28;20104;-66
2021/04/22 00:20:15;;;;;;;17.15;10.95;;;6.90;99.90;;;;;;8329296;28;20690;-66
2021/04/22 00:24:16;;;;;;;22.48;11.55;;;6.80;99.90;;;;;;8329065;28;20033;-66
2021/04/22 00:28:17;;;;;;;19.08;11.27;;;6.80;99.90;;;;;;8329090;28;20079;-65
2021/04/22 00:32:17;;;;;;;19.05;12.13;;;6.90;99.90;;;;;;8328631;28;20551;-65
2021/04/22 00:36:18;;;;;;;18.20;11.52;;;6.90;99.90;;;;;;8328926;28;20042;-66
2021/04/22 00:40:23;;;;;;;21.25;10.88;;;7.10;99.90;;;;;;8326780;28;20033;-65
2021/04/22 00:44:24;;;;;;;16.45;10.70;;;7.10;99.90;;;;;;8328444;28;20439;-66
2021/04/22 00:48:27;;;;;;;19.60;11.50;;;7.00;99.90;;;;;;8328684;28;20022;-65
2021/04/22 00:52:27;;;;;;;16.58;10.82;;;7.00;99.90;;;;;;8328287;28;20443;-65
2021/04/22 00:56:29;;;;;;;18.33;10.98;;;6.90;99.90;;;;;;8328430;28;20021;-65
2021/04/22 01:00:35;;;;;;;20.88;10.90;;;7.00;99.90;;;;;;8328377;28;20026;-66
2021/04/22 01:04:36;;;;;;;22.30;12.48;;;7.10;99.90;;;;;;8327996;28;20423;-65
2021/04/22 01:08:37;;;;;;;20.55;12.98;;;7.00;99.90;;;;;;8328014;28;20029;-65
2021/04/22 01:12:37;;;;;;;20.08;12.30;;;7.00;99.90;;;;;;8326448;28;20102;-65
2021/04/22 01:16:38;;;;;;;19.83;13.25;;;7.40;99.90;;;;;;8328200;28;20383;-66
2021/04/22 01:20:47;;;;;;;19.85;12.48;;;7.30;99.90;;;;;;8327657;28;20025;-66
2021/04/22 01:24:48;;;;;;;20.67;12.65;;;7.30;99.90;;;;;;8327447;28;20022;-66
2021/04/22 01:28:49;;;;;;;21.77;12.27;;;7.40;99.90;;;;;;8327960;28;20033;-66
2021/04/22 01:32:50;;;;;;;20.40;12.77;;;7.40;99.90;;;;;;8327529;28;20389;-66
2021/04/22 01:36:51;;;;;;;18.95;12.95;;;7.40;99.90;;;;;;8327115;28;20045;-66
2021/04/22 01:40:51;;;;;;;22.67;12.75;;;7.30;99.90;;;;;;8327175;28;20025;-66
2021/04/22 01:44:52;;;;;;;19.27;12.93;;;7.20;99.90;;;;;;8325569;28;20095;-66
2021/04/22 01:48:53;;;;;;;20.98;12.68;;;7.10;99.90;;;;;;8326804;28;20025;-66
2021/04/22 01:52:55;;;;;;;22.02;13.77;;;6.90;99.90;;;;;;8326218;28;20032;-66
2021/04/22 01:56:56;;;;;;;23.10;14.15;;;6.90;99.90;;;;;;8326398;28;20099;-66
2021/04/22 02:00:58;;;;;;;20.48;13.27;;;6.90;99.90;;;;;;8326388;28;20029;-66
2021/04/22 02:04:58;;;;;;;21.00;13.35;;;6.90;99.90;;;;;;8326031;28;20025;-66
2021/04/22 02:08:59;;;;;;;20.73;13.65;;;6.60;99.90;;;;;;8326117;28;20117;-66
2021/04/22 02:13:00;;;;;;;21.15;14.13;;;6.70;99.90;;;;;;8325672;28;20513;-66
2021/04/22 02:17:00;;;;;;;21.85;13.80;;;6.70;99.90;;;;;;8303525;28;20033;-66
2021/04/22 02:21:01;;;;;;;23.10;13.88;;;6.70;99.90;;;;;;8293061;28;20069;-66
2021/04/22 02:25:04;;;;;;;24.88;14.38;;;6.60;99.90;;;;;;8295703;28;20018;-66
2021/04/22 02:29:05;;;;;;;23.45;14.68;;;6.80;99.90;;;;;;8303940;28;20491;-66
2021/04/22 02:33:09;;;;;;;22.33;13.43;;;6.90;99.90;;;;;;8303425;28;20026;-66
2021/04/22 02:37:09;;;;;;;20.98;13.75;;;6.90;99.90;;;;;;8303351;28;20038;-66
2021/04/22 02:41:10;;;;;;;24.67;14.32;;;7.10;99.90;;;;;;8302946;28;20121;-66
2021/04/22 02:45:22;;;;;;;22.70;13.55;;;7.30;99.90;;;;;;8315525;28;20033;-66
2021/04/22 02:49:23;;;;;;;20.65;13.38;;;7.30;99.90;;;;;;8310556;28;20030;-66
2021/04/22 02:53:24;;;;;;;22.45;13.82;;;7.10;99.90;;;;;;8303113;28;20088;-66
2021/04/22 02:57:25;;;;;;;22.65;13.50;;;6.90;99.90;;;;;;8302353;28;20087;-66
2021/04/22 03:01:25;;;;;;;21.98;13.40;;;7.00;99.90;;;;;;8303387;28;20034;-66
2021/04/22 03:05:26;;;;;;;18.77;12.80;;;7.10;99.90;;;;;;8303020;28;20480;-66
2021/04/22 03:09:26;;;;;;;20.40;11.93;;;6.90;99.90;;;;;;8303320;28;20026;-66
2021/04/22 03:13:27;;;;;;;19.20;11.15;;;6.80;99.90;;;;;;8302783;28;20037;-66
2021/04/22 03:17:27;;;;;;;22.10;12.93;;;6.50;99.90;;;;;;8334263;28;20033;-66
2021/04/22 03:21:28;;;;;;;19.65;13.35;;;6.50;99.90;;;;;;8311370;28;20044;-66
2021/04/22 03:25:29;;;;;;;21.02;14.10;;;6.30;99.90;;;;;;8302826;28;20489;-66
2021/04/22 03:29:30;;;;;;;23.45;15.02;;;5.90;99.90;;;;;;8303007;28;20484;-66
2021/04/22 03:33:30;;;;;;;26.13;15.38;;;5.90;99.90;;;;;;8302140;28;20084;-66
2021/04/22 03:37:31;;;;;;;24.77;15.55;;;5.90;99.90;;;;;;8298840;28;20036;-65
2021/04/22 03:41:32;;;;;;;21.23;14.25;;;5.80;99.90;;;;;;8297587;28;20026;-66
2021/04/22 03:45:32;;;;;;;22.58;15.25;;;5.60;99.90;;;;;;8312859;28;20064;-66
2021/04/22 03:49:33;;;;;;;26.83;15.50;;;5.40;99.90;;;;;;8316558;28;20029;-66
2021/04/22 03:53:33;;;;;;;27.13;15.82;;;5.50;99.90;;;;;;8296425;28;20496;-66
2021/04/22 03:57:34;;;;;;;25.05;15.45;;;5.60;99.90;;;;;;8297180;28;20040;-66
2021/04/22 04:01:35;;;;;;;23.52;15.73;;;5.50;99.90;;;;;;8295627;28;20164;-66
2021/04/22 04:05:35;;;;;;;26.55;16.65;;;5.60;99.90;;;;;;8296598;28;20552;-66
2021/04/22 04:09:36;;;;;;;24.67;14.20;;;5.60;99.90;;;;;;8296849;28;20089;-66
2021/04/22 04:13:37;;;;;;;26.92;16.42;;;6.00;99.90;;;;;;8294721;28;20042;-66
2021/04/22 04:17:37;;;;;;;26.05;16.58;;;5.80;99.90;;;;;;8327863;28;20033;-66
2021/04/22 04:21:38;;;;;;;27.90;16.27;;;5.70;99.90;;;;;;8328647;28;20037;-65
2021/04/22 04:25:39;;;;;;;22.90;14.90;;;5.70;99.90;;;;;;8321920;28;20026;-66
2021/04/22 04:29:39;;;;;;;20.85;13.93;;;6.70;99.90;;;;;;8319730;28;20068;-65
2021/04/22 04:33:40;;;;;;;21.35;13.77;;;7.60;99.90;;;;;;8296393;28;20025;-66
2021/04/22 04:37:41;;;;;;;21.50;14.45;;;7.70;99.90;;;;;;8295871;28;20060;-65
2021/04/22 04:41:43;;;;;;;24.88;14.75;;;8.30;99.90;;;;;;8296203;28;20089;-66
2021/04/22 04:45:43;;;;;;;20.52;13.88;;;7.70;99.90;;;;;;8311445;28;20018;-66
2021/04/22 04:49:44;;;;;;;23.52;13.55;;;7.00;99.90;;;;;;8327637;28;20030;-66
2021/04/22 04:53:47;;;;;;;21.95;13.82;;;6.60;99.90;;;;;;8309740;28;20108;-66
2021/04/22 04:57:48;;;;;;;22.30;13.98;;;6.30;99.90;;;;;;8319840;28;20026;-66
2021/04/22 05:01:48;;;;;;;24.00;14.70;;;6.20;99.90;;;;;;8295364;28;20034;-66
2021/04/22 05:05:49;;;;;;;25.92;15.50;;;6.10;99.90;;;;;;8313059;28;20025;-66
2021/04/22 05:09:49;;;;;;;24.50;15.07;;;6.20;99.90;;;;;;8327828;28;20033;-66
2021/04/22 05:13:50;;;;;;;22.02;15.27;;;6.40;99.90;;;;;;8327025;28;20058;-65
2021/04/22 05:17:50;;;;;;;24.30;14.93;;;6.70;99.90;;;;;;8327206;28;20041;-66
2021/04/22 05:21:51;;;;;;;24.13;14.77;;;6.80;99.90;;;;;;8324975;28;20461;-66
2021/04/22 05:25:54;;;;;;;23.67;15.43;;;6.90;99.90;;;;;;8326236;28;20032;-66
2021/04/22 05:29:54;;;;;;;22.13;13.82;;;7.00;99.90;;;;;;8323121;28;20025;-66
2021/04/22 05:33:55;;;;;;;23.10;14.73;;;7.30;99.90;;;;;;8315737;28;20029;-66
2021/04/22 05:37:55;;;;;;;28.20;15.52;;;7.50;99.90;;;;;;8308246;28;20488;-66
2021/04/22 05:41:58;;;;;;;23.95;14.68;;;7.60;99.90;;;;;;8322996;28;20048;-62
2021/04/22 05:45:59;;;;;;;20.85;14.35;;;7.70;99.90;;;;;;8325881;28;20017;-68
2021/04/22 05:50:00;;;;;;;22.10;14.95;;;7.80;99.90;;;;;;8295929;28;20415;-67
2021/04/22 05:54:00;;;;;;;22.15;13.93;;;8.00;99.90;;;;;;8311208;28;20029;-66
2021/04/22 05:58:01;;;;;;;18.75;13.60;;;8.00;99.90;;;;;;8318709;28;20037;-66
2021/04/22 06:02:02;;;;;;;21.83;14.32;;;8.30;99.90;;;;;;8313675;28;20045;-66
2021/04/22 06:06:03;;;;;;;23.55;15.00;;;8.50;99.90;;;;;;8316655;28;20440;-61
2021/04/22 06:10:05;;;;;;;21.52;14.38;;;8.70;99.90;;;;;;8309896;28;20025;-61
2021/04/22 06:14:06;;;;;;;24.25;14.38;;;9.00;99.90;;;;;;8308325;28;20102;-62
2021/04/22 06:18:07;;;;;;;21.67;13.88;;;9.30;99.90;;;;;;8316163;28;20048;-61
2021/04/22 06:22:07;;;;;;;22.10;14.82;;;9.30;99.90;;;;;;8324182;28;20018;-61
2021/04/22 06:26:08;;;;;;;23.80;13.93;;;9.00;99.90;;;;;;8312690;28;20475;-61
2021/04/22 06:30:10;;;;;;;23.10;15.32;;;9.00;99.90;;;;;;8304749;28;20107;-61
2021/04/22 06:34:12;;;;;;;20.58;14.52;;;9.40;99.90;;;;;;8303836;28;20030;-61
2021/04/22 06:38:13;;;;;;;22.25;14.93;;;10.00;99.90;;;;;;8292611;28;20030;-62
2021/04/22 06:42:13;;;;;;;22.52;14.30;;;10.80;99.90;;;;;;8324215;28;20029;-62
2021/04/22 06:46:15;;;;;;;20.13;14.02;;;10.90;99.90;;;;;;8320137;28;20025;-61
2021/04/22 06:50:21;;;;;;;18.50;13.30;;;11.50;99.90;;;;;;8305184;28;20029;-61
2021/04/22 06:54:22;;;;;;;21.73;14.80;;;11.30;99.90;;;;;;8298711;28;20036;-61
2021/04/22 06:58:22;;;;;;;22.38;15.55;;;11.00;99.90;;;;;;8292703;28;20168;-62
2021/04/22 07:02:23;;;;;;;20.80;15.25;;;11.20;99.90;;;;;;8299908;28;20025;-63
2021/04/22 07:06:24;;;;;;;20.25;14.80;;;11.60;99.90;;;;;;8313450;28;20053;-61
2021/04/22 07:10:25;;;;;;;20.67;13.93;;;11.30;99.90;;;;;;8324649;28;20025;-61
2021/04/22 07:14:25;;;;;;;21.25;14.45;;;11.40;99.90;;;;;;8329991;28;20109;-62
2021/04/22 07:18:26;;;;;;;22.33;15.48;;;10.80;99.90;;;;;;8330748;28;20025;-61
2021/04/22 07:22:27;;;;;;;27.08;15.85;;;10.90;99.90;;;;;;8329603;28;20033;-62
2021/04/22 07:26:27;;;;;;;25.20;16.17;;;11.20;99.90;;;;;;8330429;28;20545;-62
2021/04/22 07:30:28;;;;;;;21.73;15.77;;;11.80;99.90;;;;;;8301988;28;20112;-62
2021/04/22 07:34:28;;;;;;;20.50;15.57;;;12.60;99.90;;;;;;8314069;28;20040;-62
2021/04/22 07:38:29;;;;;;;23.60;14.90;;;13.00;99.90;;;;;;8319545;28;20043;-62
2021/04/22 07:42:30;;;;;;;20.67;14.57;;;12.50;99.90;;;;;;8330069;28;20026;-61
2021/04/22 07:46:30;;;;;;;21.80;15.60;;;11.80;99.90;;;;;;8319706;28;20034;-61
2021/04/22 07:50:32;;;;;;;20.52;15.65;;;11.50;99.90;;;;;;8317927;28;20033;-62
2021/04/22 07:54:32;;;;;;;23.98;15.85;;;11.70;99.90;;;;;;8323708;28;20026;-62
2021/04/22 07:58:33;;;;;;;21.35;14.80;;;12.10;99.90;;;;;;8312732;28;20074;-61
2021/04/22 08:02:34;;;;;;;15.02;7.60;;;11.50;99.90;;;;;;8320598;28;20030;-63
2021/04/22 08:06:34;;;;;;;21.42;16.13;;;11.80;99.90;;;;;;8314638;28;20052;-62
2021/04/22 08:10:41;;;;;;;23.67;16.02;;;12.40;99.90;;;;;;8305137;28;20040;-63
2021/04/22 08:14:42;;;;;;;23.77;16.00;;;12.80;99.90;;;;;;8320271;28;20399;-62
2021/04/22 08:18:43;;;;;;;21.85;15.90;;;13.40;99.90;;;;;;8310556;28;20033;-62
2021/04/22 08:22:44;;;;;;;16.38;11.35;;;14.50;99.90;;;;;;8316974;28;20084;-62
2021/04/22 08:26:45;;;;;;;23.85;16.10;;;14.20;99.90;;;;;;8313200;28;20080;-62
2021/04/22 08:30:53;;;;;;;23.35;16.85;;;13.00;99.90;;;;;;8314248;28;20045;-61
2021/04/22 08:34:53;;;;;;;24.02;17.00;;;12.60;99.90;;;;;;8294748;28;20046;-62
2021/04/22 08:38:54;;;;;;;20.95;14.18;;;13.40;99.90;;;;;;8321367;28;20566;-61
2021/04/22 08:42:55;;;;;;;25.27;18.70;;;13.90;99.90;;;;;;8309455;28;20087;-60
2021/04/22 08:46:56;;;;;;;24.08;16.60;;;13.20;99.90;;;;;;8316638;28;20072;-62
2021/04/22 08:50:57;;;;;;;25.08;17.65;;;13.20;99.90;;;;;;8313058;28;20033;-62
2021/04/22 08:54:57;;;;;;;25.55;17.98;;;12.50;99.90;;;;;;8313307;28;20089;-62
2021/04/22 08:58:58;;;;;;;24.20;17.67;;;12.80;99.90;;;;;;8315856;28;20021;-62
2021/04/22 09:02:58;;;;;;;23.95;19.15;;;12.70;99.90;;;;;;8315858;28;20531;-61
2021/04/22 09:06:59;;;;;;;23.33;17.60;;;12.90;99.90;;;;;;8308052;28;20029;-62
2021/04/22 09:11:00;;;;;;;26.02;18.33;;;13.40;99.90;;;;;;8314027;28;20029;-61
2021/04/22 09:15:09;;;;;;;24.33;17.80;;;13.80;99.90;;;;;;8307176;28;20088;-62
2021/04/22 09:19:13;;;;;;;25.60;18.38;;;14.20;99.90;;;;;;8308337;28;20131;-62
2021/04/22 09:23:17;;;;;;;23.75;17.92;;;14.50;99.90;;;;;;8324875;28;20121;-62
2021/04/22 09:27:17;;;;;;;25.10;17.60;;;15.00;99.90;;;;;;8311951;28;20043;-62
2021/04/22 09:31:26;;;;;;;24.73;18.08;;;15.20;99.90;;;;;;8320180;28;20431;-62
2021/04/22 09:35:27;;;;;;;23.05;17.88;;;15.40;99.90;;;;;;8325128;28;20033;-62
2021/04/22 09:39:30;;;;;;;23.45;17.00;;;15.90;99.90;;;;;;8325999;28;20071;-62
2021/04/22 09:43:31;;;;;;;22.48;18.55;;;16.90;99.90;;;;;;8326605;28;20025;-62
2021/04/22 09:47:31;;;;;;;22.95;17.75;;;16.70;99.90;;;;;;8304026;28;20049;-62
2021/04/22 09:51:33;;;;;;;26.80;19.05;;;16.40;99.90;;;;;;8325250;28;20551;-62
2021/04/22 09:55:36;;;;;;;23.90;18.60;;;16.40;99.90;;;;;;8325782;28;20021;-63
2021/04/22 09:59:43;;;;;;;23.95;18.05;;;16.30;99.90;;;;;;8325315;28;20025;-63
2021/04/22 10:03:50;;;;;;;24.90;18.95;;;16.20;99.90;;;;;;8305437;28;20049;-62
2021/04/22 10:08:12;;;;;;;25.00;18.90;;;16.40;99.90;;;;;;8321704;28;20506;-62
2021/04/22 10:12:40;;;;;;;24.02;18.65;;;16.90;99.90;;;;;;8320486;28;20022;-63
2021/04/22 10:16:42;;;;;;;25.80;18.85;;;17.20;99.90;;;;;;8313021;28;20048;-63
2021/04/22 10:20:43;;;;;;;24.63;19.00;;;17.80;99.90;;;;;;8323363;28;20013;-63
2021/04/22 10:24:54;;;;;;;21.80;18.67;;;17.70;99.90;;;;;;8325315;28;20018;-63
2021/04/22 10:28:55;;;;;;;22.83;18.90;;;18.60;99.90;;;;;;8323351;28;20022;-64
2021/04/22 10:32:56;;;;;;;24.08;19.23;;;18.60;99.90;;;;;;8325553;28;20079;-63
2021/04/22 10:37:00;;;;;;;24.98;19.52;;;18.50;99.90;;;;;;8323321;28;20561;-64
2021/04/22 10:41:01;;;;;;;23.60;19.35;;;19.30;99.90;;;;;;8309416;28;20049;-64
2021/04/22 10:45:05;;;;;;;26.35;19.38;;;19.30;99.00;;;;;;8300944;28;20022;-64
2021/04/22 10:49:06;;;;;;;23.88;19.58;;;19.60;96.60;;;;;;8318725;28;20551;-64
2021/04/22 10:53:12;;;;;;;23.98;19.27;;;19.00;95.30;;;;;;8304960;28;20386;-64
2021/04/22 10:57:19;;;;;;;23.00;19.52;;;19.40;97.50;;;;;;8312271;28;20030;-64
2021/04/22 11:01:31;;;;;;;23.70;19.80;;;20.50;95.50;;;;;;8320098;28;20024;-64
2021/04/22 11:05:34;;;;;;;22.52;19.27;;;21.10;93.60;;;;;;8309540;28;20048;-64
2021/04/22 11:09:35;;;;;;;24.40;18.83;;;22.80;85.10;;;;;;8311786;28;20500;-64
2021/04/22 11:13:35;;;;;;;23.63;19.65;;;24.40;79.50;;;;;;8301460;28;20045;-63
2021/04/22 11:17:38;;;;;;;22.73;19.75;;;25.20;69.40;;;;;;8309711;28;20026;-64
2021/04/22 11:21:50;;;;;;;22.85;19.85;;;25.00;65.10;;;;;;8310484;28;20476;-64
2021/04/22 11:25:56;;;;;;;25.15;20.85;;;23.70;68.30;;;;;;8297849;28;20280;-64
2021/04/22 11:30:06;;;;;;;23.90;20.77;;;22.80;71.60;;;;;;8319456;28;20432;-64
2021/04/22 11:34:07;;;;;;;27.95;21.52;;;21.50;70.80;;;;;;8327696;28;20040;-63
2021/04/22 11:38:10;;;;;;;27.33;22.00;;;20.60;77.50;;;;;;8326406;28;20033;-63
2021/04/22 11:42:10;;;;;;;29.33;22.70;;;22.70;66.20;;;;;;8310804;28;20087;-63
2021/04/22 11:46:11;;;;;;;27.20;20.67;;;21.50;72.60;;;;;;8329229;28;20104;-63
2021/04/22 11:50:19;;;;;;;27.63;22.33;;;21.30;72.70;;;;;;8329379;28;20022;-64
2021/04/22 11:54:29;;;;;;;29.65;21.80;;;20.30;75.40;;;;;;8313563;28;20027;-64
2021/04/22 11:58:30;;;;;;;27.73;22.08;;;20.50;72.40;;;;;;8314041;28;20056;-63
2021/04/22 12:02:31;;;;;;;29.75;24.48;;;21.60;68.50;;;;;;8324034;28;20059;-63
2021/04/22 12:06:31;;;;;;;33.03;23.98;;;20.30;69.30;;;;;;8324717;28;20043;-63
2021/04/22 12:10:35;;;;;;;31.23;23.80;;;19.30;75.80;;;;;;8315492;28;20037;-63
2021/04/22 12:14:35;;;;;;;31.48;24.52;;;20.60;71.60;;;;;;8318183;28;20052;-63
2021/04/22 12:18:42;;;;;;;17.67;12.75;;;21.10;72.60;;;;;;8314488;28;20420;-63
2021/04/22 12:22:45;;;;;;;19.67;12.57;;;18.20;74.20;;;;;;8303544;28;20034;-61
2021/04/22 12:26:46;;;;;;;36.28;26.45;;;14.70;91.00;;;;;;8314900;28;20516;-63
2021/04/22 12:30:47;;;;;;;35.55;27.17;;;14.80;93.80;;;;;;8314989;28;20121;-63
2021/04/22 12:34:48;;;;;;;32.72;22.67;;;16.20;90.80;;;;;;8301045;28;20404;-63
2021/04/22 12:38:49;;;;;;;31.05;24.90;;;20.60;79.30;;;;;;8302903;28;20030;-63
2021/04/22 12:42:49;;;;;;;30.40;24.42;;;22.30;69.40;;;;;;8325427;28;20029;-63
2021/04/22 12:46:50;;;;;;;30.15;25.23;;;22.90;63.50;;;;;;8310712;28;20026;-64
2021/04/22 12:50:52;;;;;;;25.88;18.80;;;24.50;91.50;;;;;;8295201;28;20046;-63
2021/04/22 12:54:58;;;;;;;33.03;24.17;;;21.10;66.80;;;;;;8293216;28;20022;-63
2021/04/22 12:58:59;;;;;;;28.20;24.38;;;24.10;66.10;;;;;;8306993;28;20052;-63
2021/04/22 13:03:27;;;;;;;27.58;23.23;;;24.90;62.50;;;;;;8295260;28;20579;-64
2021/04/22 13:07:30;;;;;;;30.20;24.30;;;26.70;54.60;;;;;;8309085;28;20034;-63
2021/04/22 13:11:33;;;;;;;27.55;22.88;;;23.50;55.40;;;;;;8293781;28;20455;-63
2021/04/22 13:15:34;;;;;;;27.88;21.98;;;22.20;59.50;;;;;;8306678;28;20040;-63
2021/04/22 13:19:35;;;;;;;26.33;21.50;;;25.20;55.20;;;;;;8313493;28;20124;-64
2021/04/22 13:23:38;;;;;;;26.45;20.90;;;25.20;52.20;;;;;;8307414;28;20030;-63
2021/04/22 13:27:38;;;;;;;26.75;22.35;;;20.70;58.60;;;;;;8323587;28;20031;-62
2021/04/22 13:31:41;;;;;;;24.33;19.02;;;19.80;64.10;;;;;;8319729;28;20029;-63
2021/04/22 13:35:42;;;;;;;21.20;15.07;;;22.10;58.80;;;;;;8317149;28;20106;-63
2021/04/22 13:39:45;;;;;;;24.00;19.73;;;25.40;50.10;;;;;;8314684;28;20029;-63
2021/04/22 13:44:00;;;;;;;24.58;19.38;;;21.20;55.90;;;;;;8322912;28;20078;-63
2021/04/22 13:48:30;;;;;;;25.30;18.35;;;25.00;55.10;;;;;;8293393;28;20029;-63
2021/04/22 13:52:31;;;;;;;23.27;18.88;;;28.30;45.00;;;;;;8296908;28;20404;-63
2021/04/22 13:56:32;;;;;;;21.13;17.20;;;24.90;53.70;;;;;;8313951;28;20028;-63
2021/04/22 14:00:35;;;;;;;21.98;16.10;;;27.50;45.70;;;;;;8325515;28;20056;-63
2021/04/22 14:04:35;;;;;;;17.77;15.77;;;27.90;44.10;;;;;;8300921;28;20519;-63
2021/04/22 14:08:36;;;;;;;20.85;16.08;;;28.20;43.50;;;;;;8292696;28;20018;-64
2021/04/22 14:12:37;;;;;;;18.02;15.50;;;28.50;44.40;;;;;;8292566;28;20029;-64
2021/04/22 14:16:38;;;;;;;18.35;15.20;;;31.20;40.40;;;;;;8313650;28;20095;-64
2021/04/22 14:20:39;;;;;;;20.92;16.98;;;34.00;34.40;;;;;;8300754;28;20034;-63
2021/04/22 14:24:40;;;;;;;18.85;14.70;;;23.60;47.30;;;;;;8294668;28;20184;-63
2021/04/22 14:28:41;;;;;;;14.50;12.85;;;22.30;54.00;;;;;;8303453;28;20029;-63
2021/04/22 14:32:41;;;;;;;16.98;13.05;;;27.40;43.70;;;;;;8305313;28;20172;-63
2021/04/22 14:36:43;;;;;;;16.77;13.07;;;29.30;38.90;;;;;;8310389;28;20120;-63
2021/04/22 14:40:44;;;;;;;17.95;13.23;;;27.00;41.20;;;;;;8309643;28;20388;-62
2021/04/22 14:44:44;;;;;;;14.52;11.18;;;22.60;47.00;;;;;;8310179;28;20028;-63
2021/04/22 14:48:45;;;;;;;14.63;11.18;;;26.30;44.50;;;;;;8309844;28;20033;-64
2021/04/22 14:52:45;;;;;;;12.93;9.88;;;29.70;35.40;;;;;;8310550;28;20030;-64
2021/04/22 14:56:46;;;;;;;11.70;9.77;;;26.80;39.00;;;;;;8319962;28;20599;-63
2021/04/22 15:00:47;;;;;;;13.05;9.25;;;27.20;35.90;;;;;;8282501;28;20280;-64
2021/04/22 15:04:47;;;;;;;14.00;9.40;;;28.90;36.90;;;;;;8301799;28;20025;-64
2021/04/22 15:08:48;;;;;;;12.20;9.80;;;29.70;34.70;;;;;;8322369;28;20025;-64
2021/04/22 15:12:49;;;;;;;11.60;9.20;;;27.40;33.60;;;;;;8321590;28;20048;-64
2021/04/22 15:16:49;;;;;;;11.60;8.82;;;25.30;36.80;;;;;;8322504;28;20033;-64
2021/04/22 15:20:50;;;;;;;11.52;8.80;;;26.20;36.60;;;;;;8301960;28;20058;-64
2021/04/22 15:24:51;;;;;;;11.50;8.43;;;27.50;32.10;;;;;;8314887;28;20056;-63
2021/04/22 15:28:51;;;;;;;11.65;9.30;;;24.80;37.70;;;;;;8317620;28;20033;-63
2021/04/22 15:32:52;;;;;;;10.55;7.82;;;23.10;40.00;;;;;;8311098;28;20489;-62
2021/04/22 15:36:56;;;;;;;9.52;6.57;;;21.00;44.30;;;;;;8319325;28;20026;-63
2021/04/22 15:41:00;;;;;;;9.98;5.60;;;23.10;42.40;;;;;;8300933;28;20033;-63
2021/04/22 15:45:01;;;;;;;8.32;6.03;;;25.90;35.10;;;;;;8312339;28;20036;-63
2021/04/22 15:49:03;;;;;;;8.30;4.22;;;22.50;38.60;;;;;;8319787;28;20052;-62
2021/04/22 15:53:05;;;;;;;7.53;4.90;;;18.90;44.10;;;;;;8326435;28;20064;-63
2021/04/22 15:57:05;;;;;;;8.80;4.93;;;18.20;46.90;;;;;;8329408;28;20462;-63
2021/04/22 16:01:06;;;;;;;7.13;4.07;;;20.80;40.70;;;;;;8324755;28;20041;-64
2021/04/22 16:05:07;;;;;;;5.70;4.00;;;21.90;38.60;;;;;;8295862;28;20026;-63
2021/04/22 16:09:08;;;;;;;8.38;3.63;;;24.00;37.70;;;;;;8310083;28;20484;-63
2021/04/22 16:13:10;;;;;;;6.22;3.53;;;24.50;35.70;;;;;;8318991;28;20082;-62
2021/04/22 16:17:10;;;;;;;8.43;3.80;;;23.00;35.20;;;;;;8322103;28;20072;-63
2021/04/22 16:21:12;;;;;;;5.40;3.13;;;24.70;35.00;;;;;;8326278;28;20116;-63
2021/04/22 16:25:15;;;;;;;4.45;2.60;;;25.70;34.00;;;;;;8326884;28;20025;-64
2021/04/22 16:29:15;;;;;;;3.65;2.58;;;27.30;28.80;;;;;;8327235;28;20488;-64
2021/04/22 16:33:16;;;;;;;6.57;2.78;;;28.30;29.20;;;;;;8317593;28;20124;-63
2021/04/22 16:37:17;;;;;;;4.10;2.80;;;24.40;32.10;;;;;;8323210;28;20037;-64
2021/04/22 16:41:18;;;;;;;6.95;2.35;;;23.20;31.60;;;;;;8312365;28;20112;-63
2021/04/22 16:45:20;;;;;;;4.88;2.72;;;21.90;33.10;;;;;;8321744;28;20029;-63
2021/04/22 16:49:21;;;;;;;5.22;2.85;;;19.80;35.20;;;;;;8314545;28;20095;-67
2021/04/22 16:53:22;;;;;;;5.80;2.60;;;20.00;34.30;;;;;;8327894;28;20646;-67
2021/04/22 16:57:23;;;;;;;3.88;2.38;;;18.80;38.20;;;;;;8327962;28;20028;-66
2021/04/22 17:01:23;;;;;;;4.22;2.30;;;18.30;38.30;;;;;;8310023;28;20029;-68
2021/04/22 17:05:24;;;;;;;7.72;2.50;;;19.80;34.50;;;;;;8309908;28;20468;-67
2021/04/22 17:09:24;;;;;;;4.35;2.30;;;18.30;38.40;;;;;;8314202;28;20033;-67
2021/04/22 17:13:28;;;;;;;10.75;2.50;;;17.00;38.50;;;;;;8316321;28;20025;-67
2021/04/22 17:17:28;;;;;;;4.85;1.85;;;16.40;41.60;;;;;;8313927;28;20021;-67
2021/04/22 17:21:29;;;;;;;6.43;2.47;;;15.50;42.60;;;;;;8304385;28;20512;-62
2021/04/22 17:25:30;;;;;;;7.20;3.00;;;14.50;47.10;;;;;;8312711;28;20622;-63
2021/04/22 17:29:30;;;;;;;6.80;2.65;;;14.20;46.40;;;;;;8308679;28;20444;-63
2021/04/22 17:33:31;;;;;;;7.32;2.78;;;13.60;49.40;;;;;;8305713;28;20069;-62
2021/04/22 17:37:32;;;;;;;4.88;2.78;;;13.30;48.30;;;;;;8303290;28;20404;-62
2021/04/22 17:41:32;;;;;;;4.28;2.65;;;12.80;49.40;;;;;;8304228;28;20032;-62
2021/04/22 17:45:33;;;;;;;5.47;2.70;;;12.70;51.80;;;;;;8314996;28;20021;-62
2021/04/22 17:49:33;;;;;;;4.78;2.63;;;12.30;55.40;;;;;;8305783;28;20037;-65
2021/04/22 17:53:34;;;;;;;5.82;2.33;;;11.90;54.50;;;;;;8310702;28;20455;-64
2021/04/22 17:57:35;;;;;;;5.78;2.53;;;11.80;53.10;;;;;;8311358;28;20038;-64
2021/04/22 18:01:36;;;;;;;7.22;2.55;;;11.70;53.60;;;;;;8305638;28;20034;-63
2021/04/22 18:05:38;;;;;;;7.85;2.72;;;11.60;53.40;;;;;;8303036;28;20032;-64
2021/04/22 18:09:38;;;;;;;3.67;2.20;;;11.40;54.70;;;;;;8303971;28;20108;-67
2021/04/22 18:13:39;;;;;;;5.07;2.33;;;11.10;54.90;;;;;;8308336;28;20041;-66
2021/04/22 18:17:40;;;;;;;6.38;2.05;;;10.80;56.10;;;;;;8312944;28;20041;-67
2021/04/22 18:21:41;;;;;;;5.82;2.33;;;10.50;56.60;;;;;;8310913;28;20041;-66
2021/04/22 18:25:42;;;;;;;4.80;2.40;;;10.30;57.10;;;;;;8308887;28;20041;-67
2021/04/22 18:29:42;;;;;;;4.18;2.65;;;10.00;60.10;;;;;;8303636;28;20515;-68
2021/04/22 18:33:47;;;;;;;4.45;2.40;;;9.70;62.40;;;;;;8311704;28;20038;-65
2021/04/22 18:37:50;;;;;;;5.43;2.80;;;9.60;63.80;;;;;;8308262;28;20044;-65
2021/04/22 18:41:50;;;;;;;7.82;2.35;;;9.60;64.80;;;;;;8306713;28;20117;-64
2021/04/22 18:45:51;;;;;;;3.65;2.05;;;9.70;61.00;;;;;;8303610;28;20119;-64
2021/04/22 18:49:52;;;;;;;6.25;2.45;;;9.70;60.90;;;;;;8307972;28;20026;-64
2021/04/22 18:53:53;;;;;;;4.50;2.00;;;9.60;61.50;;;;;;8308650;28;20029;-65
2021/04/22 18:57:57;;;;;;;4.22;1.98;;;9.50;61.70;;;;;;8308211;28;20124;-66
2021/04/22 19:01:57;;;;;;;8.40;2.40;;;9.50;62.20;;;;;;8307891;28;20053;-65
2021/04/22 19:05:58;;;;;;;7.57;2.58;;;9.20;63.40;;;;;;8311939;28;20080;-65
2021/04/22 19:09:58;;;;;;;4.82;2.25;;;8.90;67.80;;;;;;8324889;28;20025;-65
2021/04/22 19:13:59;;;;;;;3.72;2.30;;;9.00;66.60;;;;;;8320332;28;20438;-65
2021/04/22 19:18:00;;;;;;;6.03;2.30;;;8.50;69.20;;;;;;8314506;28;20064;-65
2021/04/22 19:22:01;;;;;;;7.03;2.03;;;8.30;70.50;;;;;;8303283;28;20038;-65
2021/04/22 19:26:02;;;;;;;3.97;2.22;;;8.10;72.90;;;;;;8296821;28;20029;-65
2021/04/22 19:30:06;;;;;;;5.47;2.53;;;7.80;75.80;;;;;;8299315;28;20440;-65
2021/04/22 19:34:06;;;;;;;7.72;2.90;;;7.60;74.30;;;;;;8294817;28;20049;-65
2021/04/22 19:38:15;;;;;;;6.55;2.70;;;7.50;78.40;;;;;;8301016;28;20104;-65
2021/04/22 19:42:15;;;;;;;7.85;2.38;;;7.50;81.60;;;;;;8307805;28;20095;-66
2021/04/22 19:46:16;;;;;;;7.35;2.92;;;7.50;79.70;;;;;;8307021;28;20029;-65
2021/04/22 19:50:18;;;;;;;4.47;2.90;;;7.50;78.80;;;;;;8302730;28;20618;-65
2021/04/22 19:54:19;;;;;;;6.07;3.50;;;7.20;82.10;;;;;;8305592;28;20468;-65
2021/04/22 19:58:20;;;;;;;12.73;4.82;;;7.10;82.40;;;;;;8305294;28;20030;-65
2021/04/22 20:02:21;;;;;;;11.48;4.85;;;6.90;83.30;;;;;;8305744;28;20073;-65
2021/04/22 20:06:22;;;;;;;11.95;4.93;;;6.80;84.80;;;;;;8302365;28;20535;-64
2021/04/22 20:10:23;;;;;;;7.45;3.80;;;6.60;86.80;;;;;;8306424;28;20062;-65
2021/04/22 20:14:23;;;;;;;10.15;3.75;;;6.40;89.60;;;;;;8307088;28;20075;-64
2021/04/22 20:18:28;;;;;;;5.28;2.97;;;6.40;90.30;;;;;;8308156;28;20033;-65
2021/04/22 20:22:29;;;;;;;5.63;2.83;;;6.10;91.90;;;;;;8307164;28;20084;-65
2021/04/22 20:26:30;;;;;;;7.13;2.88;;;5.90;93.00;;;;;;8308294;28;20611;-64
2021/04/22 20:30:32;;;;;;;7.32;2.83;;;6.00;92.50;;;;;;8303706;28;20482;-64
2021/04/22 20:34:33;;;;;;;6.63;3.00;;;5.70;93.30;;;;;;8308318;28;20033;-65
2021/04/22 20:38:38;;;;;;;6.80;3.08;;;5.40;95.50;;;;;;8302404;28;20475;-65